sensor_id;sensor_type;location;lat;lon;timestamp;P1;durP1;ratioP1;P2;durP2;ratioP2
9200;SDS011;4635;48.686;9.008;2022-09-01T00:01:36;43.77;;;29.87;;
9200;SDS011;4635;48.686;9.008;2022-09-01T00:04:06;44.40;;;30.20;;
9200;SDS011;4635;48.686;9.008;2022-09-01T00:06:40;42.73;;;29.63;;
9200;SDS011;4635;48.686;9.008;2022-09-01T00:09:08;38.60;;;28.00;;
9200;SDS011;4635;48.686;9.008;2022-09-01T00:11:37;53.13;;;30.70;;
9200;SDS011;4635;48.686;9.008;2022-09-01T00:14:06;47.93;;;31.07;;
9200;SDS011;4635;48.686;9.008;2022-09-01T00:16:34;40.70;;;30.00;;
9200;SDS011;4635;48.686;9.008;2022-09-01T00:19:03;43.57;;;29.77;;
9200;SDS011;4635;48.686;9.008;2022-09-01T00:21:32;44.90;;;32.87;;
9200;SDS011;4635;48.686;9.008;2022-09-01T00:24:01;43.20;;;31.60;;
9200;SDS011;4635;48.686;9.008;2022-09-01T00:26:28;50.23;;;32.83;;
9200;SDS011;4635;48.686;9.008;2022-09-01T00:28:55;51.07;;;33.23;;
9200;SDS011;4635;48.686;9.008;2022-09-01T00:31:26;47.80;;;32.50;;
9200;SDS011;4635;48.686;9.008;2022-09-01T00:33:57;48.93;;;33.60;;
9200;SDS011;4635;48.686;9.008;2022-09-01T00:36:24;47.00;;;34.20;;
9200;SDS011;4635;48.686;9.008;2022-09-01T00:38:51;48.33;;;33.93;;
9200;SDS011;4635;48.686;9.008;2022-09-01T00:41:19;50.43;;;36.97;;
9200;SDS011;4635;48.686;9.008;2022-09-01T00:43:50;58.40;;;37.20;;
9200;SDS011;4635;48.686;9.008;2022-09-01T00:46:20;50.77;;;34.77;;
9200;SDS011;4635;48.686;9.008;2022-09-01T00:48:52;50.13;;;35.70;;
9200;SDS011;4635;48.686;9.008;2022-09-01T00:51:23;51.70;;;36.10;;
9200;SDS011;4635;48.686;9.008;2022-09-01T00:53:52;46.30;;;34.07;;
9200;SDS011;4635;48.686;9.008;2022-09-01T00:56:20;52.40;;;34.53;;
9200;SDS011;4635;48.686;9.008;2022-09-01T00:58:53;47.37;;;34.00;;
9200;SDS011;4635;48.686;9.008;2022-09-01T01:01:20;46.90;;;34.60;;
9200;SDS011;4635;48.686;9.008;2022-09-01T01:03:48;47.17;;;34.13;;
9200;SDS011;4635;48.686;9.008;2022-09-01T01:06:17;44.80;;;34.00;;
9200;SDS011;4635;48.686;9.008;2022-09-01T01:08:52;44.07;;;32.07;;
9200;SDS011;4635;48.686;9.008;2022-09-01T01:11:25;40.80;;;30.73;;
9200;SDS011;4635;48.686;9.008;2022-09-01T01:13:56;43.23;;;31.87;;
9200;SDS011;4635;48.686;9.008;2022-09-01T01:16:25;46.00;;;31.83;;
9200;SDS011;4635;48.686;9.008;2022-09-01T01:18:53;40.07;;;29.60;;
9200;SDS011;4635;48.686;9.008;2022-09-01T01:21:22;43.17;;;32.30;;
9200;SDS011;4635;48.686;9.008;2022-09-01T01:24:23;42.60;;;30.47;;
9200;SDS011;4635;48.686;9.008;2022-09-01T01:26:51;39.03;;;29.80;;
9200;SDS011;4635;48.686;9.008;2022-09-01T01:29:21;48.03;;;34.10;;
9200;SDS011;4635;48.686;9.008;2022-09-01T01:31:49;46.80;;;33.60;;
9200;SDS011;4635;48.686;9.008;2022-09-01T01:34:18;45.07;;;35.23;;
9200;SDS011;4635;48.686;9.008;2022-09-01T01:36:46;47.33;;;32.80;;
9200;SDS011;4635;48.686;9.008;2022-09-01T01:39:15;52.07;;;33.20;;
9200;SDS011;4635;48.686;9.008;2022-09-01T01:41:47;48.43;;;33.93;;
9200;SDS011;4635;48.686;9.008;2022-09-01T01:44:15;45.77;;;33.83;;
9200;SDS011;4635;48.686;9.008;2022-09-01T01:46:44;48.93;;;35.03;;
9200;SDS011;4635;48.686;9.008;2022-09-01T01:49:13;46.67;;;34.60;;
9200;SDS011;4635;48.686;9.008;2022-09-01T01:51:44;46.40;;;33.77;;
9200;SDS011;4635;48.686;9.008;2022-09-01T01:54:12;35.23;;;27.27;;
9200;SDS011;4635;48.686;9.008;2022-09-01T01:56:39;35.60;;;28.17;;
9200;SDS011;4635;48.686;9.008;2022-09-01T01:59:11;42.50;;;31.00;;
9200;SDS011;4635;48.686;9.008;2022-09-01T02:01:38;32.63;;;24.00;;
9200;SDS011;4635;48.686;9.008;2022-09-01T02:04:07;36.20;;;25.00;;
9200;SDS011;4635;48.686;9.008;2022-09-01T02:06:35;51.30;;;32.67;;
9200;SDS011;4635;48.686;9.008;2022-09-01T02:09:05;51.00;;;33.87;;
9200;SDS011;4635;48.686;9.008;2022-09-01T02:11:33;46.10;;;34.80;;
9200;SDS011;4635;48.686;9.008;2022-09-01T02:14:02;49.37;;;32.50;;
9200;SDS011;4635;48.686;9.008;2022-09-01T02:16:31;44.03;;;32.60;;
9200;SDS011;4635;48.686;9.008;2022-09-01T02:18:58;46.80;;;34.10;;
9200;SDS011;4635;48.686;9.008;2022-09-01T02:21:27;51.53;;;34.27;;
9200;SDS011;4635;48.686;9.008;2022-09-01T02:23:57;45.63;;;31.40;;
9200;SDS011;4635;48.686;9.008;2022-09-01T02:26:27;51.53;;;32.60;;
9200;SDS011;4635;48.686;9.008;2022-09-01T02:28:57;53.77;;;34.93;;
9200;SDS011;4635;48.686;9.008;2022-09-01T02:31:28;46.70;;;34.20;;
9200;SDS011;4635;48.686;9.008;2022-09-01T02:33:59;44.60;;;34.67;;
9200;SDS011;4635;48.686;9.008;2022-09-01T02:36:26;46.33;;;33.47;;
9200;SDS011;4635;48.686;9.008;2022-09-01T02:38:56;45.97;;;33.13;;
9200;SDS011;4635;48.686;9.008;2022-09-01T02:41:24;48.67;;;34.77;;
9200;SDS011;4635;48.686;9.008;2022-09-01T02:43:53;50.50;;;35.30;;
9200;SDS011;4635;48.686;9.008;2022-09-01T02:46:26;44.73;;;31.87;;
9200;SDS011;4635;48.686;9.008;2022-09-01T02:48:55;48.03;;;35.90;;
9200;SDS011;4635;48.686;9.008;2022-09-01T02:51:24;48.23;;;34.90;;
9200;SDS011;4635;48.686;9.008;2022-09-01T02:53:51;42.90;;;33.43;;
9200;SDS011;4635;48.686;9.008;2022-09-01T02:56:19;47.43;;;34.60;;
9200;SDS011;4635;48.686;9.008;2022-09-01T02:58:48;51.33;;;35.27;;
9200;SDS011;4635;48.686;9.008;2022-09-01T03:01:18;50.77;;;36.00;;
9200;SDS011;4635;48.686;9.008;2022-09-01T03:03:48;47.37;;;33.97;;
9200;SDS011;4635;48.686;9.008;2022-09-01T03:06:18;47.07;;;32.27;;
9200;SDS011;4635;48.686;9.008;2022-09-01T03:08:48;44.43;;;30.83;;
9200;SDS011;4635;48.686;9.008;2022-09-01T03:11:16;46.80;;;31.50;;
9200;SDS011;4635;48.686;9.008;2022-09-01T03:13:43;49.73;;;33.10;;
9200;SDS011;4635;48.686;9.008;2022-09-01T03:16:11;55.63;;;34.70;;
9200;SDS011;4635;48.686;9.008;2022-09-01T03:18:38;50.60;;;33.30;;
9200;SDS011;4635;48.686;9.008;2022-09-01T03:21:08;45.50;;;32.50;;
9200;SDS011;4635;48.686;9.008;2022-09-01T03:23:40;48.30;;;33.87;;
9200;SDS011;4635;48.686;9.008;2022-09-01T03:26:07;47.57;;;32.47;;
9200;SDS011;4635;48.686;9.008;2022-09-01T03:28:34;41.37;;;31.00;;
9200;SDS011;4635;48.686;9.008;2022-09-01T03:31:04;40.17;;;29.50;;
9200;SDS011;4635;48.686;9.008;2022-09-01T03:33:33;42.17;;;28.03;;
9200;SDS011;4635;48.686;9.008;2022-09-01T03:36:00;46.60;;;30.90;;
9200;SDS011;4635;48.686;9.008;2022-09-01T03:38:28;38.33;;;29.77;;
9200;SDS011;4635;48.686;9.008;2022-09-01T03:41:00;46.80;;;31.40;;
9200;SDS011;4635;48.686;9.008;2022-09-01T03:43:29;39.87;;;31.37;;
9200;SDS011;4635;48.686;9.008;2022-09-01T03:45:57;42.37;;;30.50;;
9200;SDS011;4635;48.686;9.008;2022-09-01T03:48:25;43.57;;;30.90;;
9200;SDS011;4635;48.686;9.008;2022-09-01T03:50:55;42.77;;;32.13;;
9200;SDS011;4635;48.686;9.008;2022-09-01T03:53:30;51.53;;;32.17;;
9200;SDS011;4635;48.686;9.008;2022-09-01T03:56:03;47.93;;;32.73;;
9200;SDS011;4635;48.686;9.008;2022-09-01T03:58:33;52.00;;;37.10;;
9200;SDS011;4635;48.686;9.008;2022-09-01T04:01:00;50.13;;;32.27;;
9200;SDS011;4635;48.686;9.008;2022-09-01T04:03:31;45.63;;;34.23;;
9200;SDS011;4635;48.686;9.008;2022-09-01T04:05:59;46.30;;;34.17;;
9200;SDS011;4635;48.686;9.008;2022-09-01T04:08:27;48.10;;;32.57;;
9200;SDS011;4635;48.686;9.008;2022-09-01T04:10:56;56.63;;;35.00;;
9200;SDS011;4635;48.686;9.008;2022-09-01T04:13:27;49.67;;;34.87;;
9200;SDS011;4635;48.686;9.008;2022-09-01T04:15:56;43.83;;;31.00;;
9200;SDS011;4635;48.686;9.008;2022-09-01T04:18:24;49.37;;;31.77;;
9200;SDS011;4635;48.686;9.008;2022-09-01T04:20:50;44.83;;;32.27;;
9200;SDS011;4635;48.686;9.008;2022-09-01T04:23:22;46.00;;;31.27;;
9200;SDS011;4635;48.686;9.008;2022-09-01T04:25:54;55.43;;;33.97;;
9200;SDS011;4635;48.686;9.008;2022-09-01T04:28:24;46.47;;;33.37;;
9200;SDS011;4635;48.686;9.008;2022-09-01T04:30:59;54.60;;;34.90;;
9200;SDS011;4635;48.686;9.008;2022-09-01T04:33:30;57.40;;;33.10;;
9200;SDS011;4635;48.686;9.008;2022-09-01T04:36:02;48.63;;;35.77;;
9200;SDS011;4635;48.686;9.008;2022-09-01T04:38:30;49.57;;;34.97;;
9200;SDS011;4635;48.686;9.008;2022-09-01T04:41:01;54.33;;;31.80;;
9200;SDS011;4635;48.686;9.008;2022-09-01T04:43:35;44.13;;;34.20;;
9200;SDS011;4635;48.686;9.008;2022-09-01T04:46:04;45.20;;;30.80;;
9200;SDS011;4635;48.686;9.008;2022-09-01T04:48:31;44.30;;;28.93;;
9200;SDS011;4635;48.686;9.008;2022-09-01T04:51:00;41.50;;;29.60;;
9200;SDS011;4635;48.686;9.008;2022-09-01T04:53:34;37.93;;;27.27;;
9200;SDS011;4635;48.686;9.008;2022-09-01T04:56:03;42.23;;;29.17;;
9200;SDS011;4635;48.686;9.008;2022-09-01T04:58:36;49.53;;;24.47;;
9200;SDS011;4635;48.686;9.008;2022-09-01T05:01:11;38.50;;;24.90;;
9200;SDS011;4635;48.686;9.008;2022-09-01T05:03:39;29.97;;;23.17;;
9200;SDS011;4635;48.686;9.008;2022-09-01T05:06:11;29.50;;;22.13;;
9200;SDS011;4635;48.686;9.008;2022-09-01T05:08:38;33.10;;;20.70;;
9200;SDS011;4635;48.686;9.008;2022-09-01T05:11:06;32.50;;;22.67;;
9200;SDS011;4635;48.686;9.008;2022-09-01T05:13:33;26.07;;;20.40;;
9200;SDS011;4635;48.686;9.008;2022-09-01T05:16:05;24.77;;;19.47;;
9200;SDS011;4635;48.686;9.008;2022-09-01T05:18:37;25.47;;;20.20;;
9200;SDS011;4635;48.686;9.008;2022-09-01T05:21:05;31.40;;;19.20;;
9200;SDS011;4635;48.686;9.008;2022-09-01T05:23:35;23.53;;;19.03;;
9200;SDS011;4635;48.686;9.008;2022-09-01T05:26:04;27.73;;;19.20;;
9200;SDS011;4635;48.686;9.008;2022-09-01T05:28:42;23.90;;;18.30;;
9200;SDS011;4635;48.686;9.008;2022-09-01T05:31:11;25.60;;;19.03;;
9200;SDS011;4635;48.686;9.008;2022-09-01T05:33:38;27.30;;;19.63;;
9200;SDS011;4635;48.686;9.008;2022-09-01T05:36:10;25.20;;;18.63;;
9200;SDS011;4635;48.686;9.008;2022-09-01T05:38:38;30.10;;;20.03;;
9200;SDS011;4635;48.686;9.008;2022-09-01T05:41:06;24.50;;;19.60;;
9200;SDS011;4635;48.686;9.008;2022-09-01T05:43:37;23.03;;;19.70;;
9200;SDS011;4635;48.686;9.008;2022-09-01T05:46:11;22.63;;;19.07;;
9200;SDS011;4635;48.686;9.008;2022-09-01T05:48:41;22.13;;;19.00;;
9200;SDS011;4635;48.686;9.008;2022-09-01T05:51:09;25.90;;;20.50;;
9200;SDS011;4635;48.686;9.008;2022-09-01T05:53:39;31.33;;;20.83;;
9200;SDS011;4635;48.686;9.008;2022-09-01T05:56:07;29.17;;;21.13;;
9200;SDS011;4635;48.686;9.008;2022-09-01T05:58:39;27.43;;;20.60;;
9200;SDS011;4635;48.686;9.008;2022-09-01T06:01:16;25.47;;;20.00;;
9200;SDS011;4635;48.686;9.008;2022-09-01T06:03:46;25.17;;;20.87;;
9200;SDS011;4635;48.686;9.008;2022-09-01T06:06:17;34.00;;;22.93;;
9200;SDS011;4635;48.686;9.008;2022-09-01T06:08:46;37.50;;;23.67;;
9200;SDS011;4635;48.686;9.008;2022-09-01T06:11:13;33.03;;;21.50;;
9200;SDS011;4635;48.686;9.008;2022-09-01T06:13:41;33.87;;;22.40;;
9200;SDS011;4635;48.686;9.008;2022-09-01T06:16:11;42.50;;;23.03;;
9200;SDS011;4635;48.686;9.008;2022-09-01T06:18:42;69.57;;;25.80;;
9200;SDS011;4635;48.686;9.008;2022-09-01T06:21:10;57.57;;;25.13;;
9200;SDS011;4635;48.686;9.008;2022-09-01T06:23:39;40.30;;;22.93;;
9200;SDS011;4635;48.686;9.008;2022-09-01T06:26:14;49.17;;;23.70;;
9200;SDS011;4635;48.686;9.008;2022-09-01T06:28:42;37.43;;;23.33;;
9200;SDS011;4635;48.686;9.008;2022-09-01T06:31:10;45.50;;;24.90;;
9200;SDS011;4635;48.686;9.008;2022-09-01T06:33:39;43.73;;;21.40;;
9200;SDS011;4635;48.686;9.008;2022-09-01T06:36:08;28.20;;;21.93;;
9200;SDS011;4635;48.686;9.008;2022-09-01T06:38:35;39.63;;;19.50;;
9200;SDS011;4635;48.686;9.008;2022-09-01T06:41:05;23.70;;;21.13;;
9200;SDS011;4635;48.686;9.008;2022-09-01T06:43:37;26.10;;;19.43;;
9200;SDS011;4635;48.686;9.008;2022-09-01T06:46:06;28.47;;;22.13;;
9200;SDS011;4635;48.686;9.008;2022-09-01T06:48:34;26.73;;;21.30;;
9200;SDS011;4635;48.686;9.008;2022-09-01T06:51:13;27.90;;;22.10;;
9200;SDS011;4635;48.686;9.008;2022-09-01T06:53:45;28.80;;;24.03;;
9200;SDS011;4635;48.686;9.008;2022-09-01T06:56:20;38.97;;;20.90;;
9200;SDS011;4635;48.686;9.008;2022-09-01T06:58:51;26.63;;;20.50;;
9200;SDS011;4635;48.686;9.008;2022-09-01T07:01:23;34.03;;;19.77;;
9200;SDS011;4635;48.686;9.008;2022-09-01T07:03:54;25.60;;;19.50;;
9200;SDS011;4635;48.686;9.008;2022-09-01T07:06:37;42.33;;;20.37;;
9200;SDS011;4635;48.686;9.008;2022-09-01T07:09:08;21.00;;;18.40;;
9200;SDS011;4635;48.686;9.008;2022-09-01T07:11:40;29.20;;;18.43;;
9200;SDS011;4635;48.686;9.008;2022-09-01T07:14:09;26.13;;;18.47;;
9200;SDS011;4635;48.686;9.008;2022-09-01T07:16:43;23.17;;;17.30;;
9200;SDS011;4635;48.686;9.008;2022-09-01T07:19:11;22.10;;;16.97;;
9200;SDS011;4635;48.686;9.008;2022-09-01T07:21:48;26.63;;;19.40;;
9200;SDS011;4635;48.686;9.008;2022-09-01T07:24:19;22.83;;;17.50;;
9200;SDS011;4635;48.686;9.008;2022-09-01T07:26:47;17.77;;;14.90;;
9200;SDS011;4635;48.686;9.008;2022-09-01T07:29:18;20.93;;;14.07;;
9200;SDS011;4635;48.686;9.008;2022-09-01T07:31:54;26.23;;;13.50;;
9200;SDS011;4635;48.686;9.008;2022-09-01T07:34:24;15.70;;;10.33;;
9200;SDS011;4635;48.686;9.008;2022-09-01T07:37:00;15.17;;;12.07;;
9200;SDS011;4635;48.686;9.008;2022-09-01T07:39:30;16.33;;;11.40;;
9200;SDS011;4635;48.686;9.008;2022-09-01T07:41:59;14.13;;;10.47;;
9200;SDS011;4635;48.686;9.008;2022-09-01T07:44:33;15.40;;;10.73;;
9200;SDS011;4635;48.686;9.008;2022-09-01T07:47:13;15.90;;;11.00;;
9200;SDS011;4635;48.686;9.008;2022-09-01T07:50:09;16.07;;;11.70;;
9200;SDS011;4635;48.686;9.008;2022-09-01T07:52:42;14.37;;;12.30;;
9200;SDS011;4635;48.686;9.008;2022-09-01T07:55:14;12.60;;;11.30;;
9200;SDS011;4635;48.686;9.008;2022-09-01T07:57:45;16.80;;;10.50;;
9200;SDS011;4635;48.686;9.008;2022-09-01T08:00:22;12.27;;;10.33;;
9200;SDS011;4635;48.686;9.008;2022-09-01T08:03:04;13.13;;;9.97;;
9200;SDS011;4635;48.686;9.008;2022-09-01T08:05:34;12.47;;;10.27;;
9200;SDS011;4635;48.686;9.008;2022-09-01T08:08:06;12.10;;;9.93;;
9200;SDS011;4635;48.686;9.008;2022-09-01T08:10:38;9.57;;;8.57;;
9200;SDS011;4635;48.686;9.008;2022-09-01T08:13:09;11.13;;;8.23;;
9200;SDS011;4635;48.686;9.008;2022-09-01T08:15:41;12.27;;;10.77;;
9200;SDS011;4635;48.686;9.008;2022-09-01T08:18:12;10.40;;;8.67;;
9200;SDS011;4635;48.686;9.008;2022-09-01T08:20:41;8.40;;;7.60;;
9200;SDS011;4635;48.686;9.008;2022-09-01T08:23:15;11.83;;;8.50;;
9200;SDS011;4635;48.686;9.008;2022-09-01T08:25:45;8.83;;;7.97;;
9200;SDS011;4635;48.686;9.008;2022-09-01T08:28:15;8.90;;;8.00;;
9200;SDS011;4635;48.686;9.008;2022-09-01T08:33:21;9.27;;;8.37;;
9200;SDS011;4635;48.686;9.008;2022-09-01T08:35:51;12.00;;;9.70;;
9200;SDS011;4635;48.686;9.008;2022-09-01T08:38:22;12.70;;;10.60;;
9200;SDS011;4635;48.686;9.008;2022-09-01T08:40:51;11.70;;;9.90;;
9200;SDS011;4635;48.686;9.008;2022-09-01T08:43:21;10.40;;;9.30;;
9200;SDS011;4635;48.686;9.008;2022-09-01T08:46:03;10.63;;;9.63;;
9200;SDS011;4635;48.686;9.008;2022-09-01T08:48:39;13.60;;;9.93;;
9200;SDS011;4635;48.686;9.008;2022-09-01T08:51:11;12.50;;;9.37;;
9200;SDS011;4635;48.686;9.008;2022-09-01T08:53:47;13.47;;;9.57;;
9200;SDS011;4635;48.686;9.008;2022-09-01T08:56:25;10.93;;;9.77;;
9200;SDS011;4635;48.686;9.008;2022-09-01T08:58:52;17.10;;;10.90;;
9200;SDS011;4635;48.686;9.008;2022-09-01T09:01:35;13.70;;;9.47;;
9200;SDS011;4635;48.686;9.008;2022-09-01T09:04:16;14.90;;;9.47;;
9200;SDS011;4635;48.686;9.008;2022-09-01T09:06:52;10.07;;;9.00;;
9200;SDS011;4635;48.686;9.008;2022-09-01T09:09:32;10.47;;;9.47;;
9200;SDS011;4635;48.686;9.008;2022-09-01T09:12:26;11.90;;;8.50;;
9200;SDS011;4635;48.686;9.008;2022-09-01T09:15:15;14.40;;;8.50;;
9200;SDS011;4635;48.686;9.008;2022-09-01T09:17:57;10.60;;;9.53;;
9200;SDS011;4635;48.686;9.008;2022-09-01T09:20:39;11.00;;;8.27;;
9200;SDS011;4635;48.686;9.008;2022-09-01T09:23:21;9.80;;;8.60;;
9200;SDS011;4635;48.686;9.008;2022-09-01T09:25:55;11.07;;;7.60;;
9200;SDS011;4635;48.686;9.008;2022-09-01T09:28:23;17.20;;;9.80;;
9200;SDS011;4635;48.686;9.008;2022-09-01T09:30:53;8.97;;;7.80;;
9200;SDS011;4635;48.686;9.008;2022-09-01T09:33:51;8.20;;;7.50;;
9200;SDS011;4635;48.686;9.008;2022-09-01T09:36:22;7.80;;;7.00;;
9200;SDS011;4635;48.686;9.008;2022-09-01T09:39:02;9.33;;;8.13;;
9200;SDS011;4635;48.686;9.008;2022-09-01T09:41:36;8.70;;;7.80;;
9200;SDS011;4635;48.686;9.008;2022-09-01T09:44:16;11.00;;;7.97;;
9200;SDS011;4635;48.686;9.008;2022-09-01T09:46:51;8.30;;;6.67;;
9200;SDS011;4635;48.686;9.008;2022-09-01T09:49:22;8.43;;;6.30;;
9200;SDS011;4635;48.686;9.008;2022-09-01T09:51:54;8.00;;;7.20;;
9200;SDS011;4635;48.686;9.008;2022-09-01T09:54:23;8.93;;;7.20;;
9200;SDS011;4635;48.686;9.008;2022-09-01T09:57:11;7.33;;;5.33;;
9200;SDS011;4635;48.686;9.008;2022-09-01T09:59:43;7.73;;;6.73;;
9200;SDS011;4635;48.686;9.008;2022-09-01T10:02:15;10.63;;;6.53;;
9200;SDS011;4635;48.686;9.008;2022-09-01T10:04:51;7.73;;;6.20;;
9200;SDS011;4635;48.686;9.008;2022-09-01T10:07:24;5.77;;;5.03;;
9200;SDS011;4635;48.686;9.008;2022-09-01T10:10:23;5.97;;;5.27;;
9200;SDS011;4635;48.686;9.008;2022-09-01T10:12:55;14.20;;;5.40;;
9200;SDS011;4635;48.686;9.008;2022-09-01T10:15:24;6.80;;;5.63;;
9200;SDS011;4635;48.686;9.008;2022-09-01T10:18:03;9.20;;;5.80;;
9200;SDS011;4635;48.686;9.008;2022-09-01T10:20:37;6.00;;;5.50;;
9200;SDS011;4635;48.686;9.008;2022-09-01T10:23:19;7.17;;;6.47;;
9200;SDS011;4635;48.686;9.008;2022-09-01T10:25:49;7.30;;;6.60;;
9200;SDS011;4635;48.686;9.008;2022-09-01T10:28:30;12.53;;;5.27;;
9200;SDS011;4635;48.686;9.008;2022-09-01T10:31:19;6.10;;;5.10;;
9200;SDS011;4635;48.686;9.008;2022-09-01T10:36:38;6.30;;;4.80;;
9200;SDS011;4635;48.686;9.008;2022-09-01T10:42:25;5.87;;;5.27;;
9200;SDS011;4635;48.686;9.008;2022-09-01T10:48:21;5.07;;;3.93;;
9200;SDS011;4635;48.686;9.008;2022-09-01T10:57:24;8.40;;;4.40;;
9200;SDS011;4635;48.686;9.008;2022-09-01T11:06:33;5.03;;;4.47;;
9200;SDS011;4635;48.686;9.008;2022-09-01T11:09:31;6.23;;;5.60;;
9200;SDS011;4635;48.686;9.008;2022-09-01T11:12:23;7.00;;;5.13;;
9200;SDS011;4635;48.686;9.008;2022-09-01T11:18:14;5.20;;;4.80;;
9200;SDS011;4635;48.686;9.008;2022-09-01T11:21:09;5.80;;;5.27;;
9200;SDS011;4635;48.686;9.008;2022-09-01T11:26:57;4.20;;;3.90;;
9200;SDS011;4635;48.686;9.008;2022-09-01T11:32:25;4.10;;;3.50;;
9200;SDS011;4635;48.686;9.008;2022-09-01T11:35:00;4.13;;;3.70;;
9200;SDS011;4635;48.686;9.008;2022-09-01T11:37:41;5.80;;;4.10;;
9200;SDS011;4635;48.686;9.008;2022-09-01T11:40:08;4.10;;;3.33;;
9200;SDS011;4635;48.686;9.008;2022-09-01T11:42:40;2.93;;;2.73;;
9200;SDS011;4635;48.686;9.008;2022-09-01T11:45:13;2.90;;;2.70;;
9200;SDS011;4635;48.686;9.008;2022-09-01T11:47:47;3.70;;;3.40;;
9200;SDS011;4635;48.686;9.008;2022-09-01T11:50:19;3.53;;;2.37;;
9200;SDS011;4635;48.686;9.008;2022-09-01T11:52:52;2.80;;;2.40;;
9200;SDS011;4635;48.686;9.008;2022-09-01T11:55:29;3.50;;;2.80;;
9200;SDS011;4635;48.686;9.008;2022-09-01T11:58:27;5.07;;;3.00;;
9200;SDS011;4635;48.686;9.008;2022-09-01T12:01:14;5.27;;;3.40;;
9200;SDS011;4635;48.686;9.008;2022-09-01T12:03:49;3.93;;;2.80;;
9200;SDS011;4635;48.686;9.008;2022-09-01T12:06:21;6.90;;;3.27;;
9200;SDS011;4635;48.686;9.008;2022-09-01T12:08:57;5.83;;;3.20;;
9200;SDS011;4635;48.686;9.008;2022-09-01T12:11:29;3.93;;;3.30;;
9200;SDS011;4635;48.686;9.008;2022-09-01T12:14:00;3.20;;;3.00;;
9200;SDS011;4635;48.686;9.008;2022-09-01T12:16:30;2.57;;;2.37;;
9200;SDS011;4635;48.686;9.008;2022-09-01T12:19:00;3.40;;;3.20;;
9200;SDS011;4635;48.686;9.008;2022-09-01T12:21:30;2.90;;;2.70;;
9200;SDS011;4635;48.686;9.008;2022-09-01T12:24:09;2.77;;;2.50;;
9200;SDS011;4635;48.686;9.008;2022-09-01T12:26:43;2.40;;;2.30;;
9200;SDS011;4635;48.686;9.008;2022-09-01T12:29:13;3.13;;;2.83;;
9200;SDS011;4635;48.686;9.008;2022-09-01T12:31:42;4.90;;;3.00;;
9200;SDS011;4635;48.686;9.008;2022-09-01T12:34:23;3.73;;;3.43;;
9200;SDS011;4635;48.686;9.008;2022-09-01T12:37:03;2.83;;;2.57;;
9200;SDS011;4635;48.686;9.008;2022-09-01T12:39:39;2.63;;;2.43;;
9200;SDS011;4635;48.686;9.008;2022-09-01T12:42:20;2.70;;;2.50;;
9200;SDS011;4635;48.686;9.008;2022-09-01T12:44:59;3.70;;;3.40;;
9200;SDS011;4635;48.686;9.008;2022-09-01T12:47:45;2.40;;;2.30;;
9200;SDS011;4635;48.686;9.008;2022-09-01T12:50:36;3.20;;;2.90;;
9200;SDS011;4635;48.686;9.008;2022-09-01T12:53:23;3.97;;;3.40;;
9200;SDS011;4635;48.686;9.008;2022-09-01T12:58:50;4.73;;;3.00;;
9200;SDS011;4635;48.686;9.008;2022-09-01T13:01:47;4.80;;;3.53;;
9200;SDS011;4635;48.686;9.008;2022-09-01T13:04:25;7.37;;;5.67;;
9200;SDS011;4635;48.686;9.008;2022-09-01T13:06:59;3.27;;;2.97;;
9200;SDS011;4635;48.686;9.008;2022-09-01T13:09:29;3.30;;;3.10;;
9200;SDS011;4635;48.686;9.008;2022-09-01T13:12:15;9.60;;;8.57;;
9200;SDS011;4635;48.686;9.008;2022-09-01T13:14:45;3.57;;;3.27;;
9200;SDS011;4635;48.686;9.008;2022-09-01T13:17:21;3.70;;;3.40;;
9200;SDS011;4635;48.686;9.008;2022-09-01T13:19:48;3.90;;;3.50;;
9200;SDS011;4635;48.686;9.008;2022-09-01T13:22:16;4.10;;;3.70;;
9200;SDS011;4635;48.686;9.008;2022-09-01T13:24:44;4.57;;;3.97;;
9200;SDS011;4635;48.686;9.008;2022-09-01T13:27:11;4.00;;;3.70;;
9200;SDS011;4635;48.686;9.008;2022-09-01T13:29:39;8.47;;;3.93;;
9200;SDS011;4635;48.686;9.008;2022-09-01T13:32:12;3.80;;;3.50;;
9200;SDS011;4635;48.686;9.008;2022-09-01T13:34:45;4.23;;;3.87;;
9200;SDS011;4635;48.686;9.008;2022-09-01T13:37:16;5.43;;;4.00;;
9200;SDS011;4635;48.686;9.008;2022-09-01T13:39:48;6.00;;;4.20;;
9200;SDS011;4635;48.686;9.008;2022-09-01T13:42:17;7.63;;;3.63;;
9200;SDS011;4635;48.686;9.008;2022-09-01T13:44:45;8.87;;;3.67;;
9200;SDS011;4635;48.686;9.008;2022-09-01T13:47:13;4.03;;;3.47;;
9200;SDS011;4635;48.686;9.008;2022-09-01T13:49:49;4.57;;;3.57;;
9200;SDS011;4635;48.686;9.008;2022-09-01T13:52:22;4.87;;;4.37;;
9200;SDS011;4635;48.686;9.008;2022-09-01T13:54:52;3.20;;;2.90;;
9200;SDS011;4635;48.686;9.008;2022-09-01T13:57:19;5.33;;;4.83;;
9200;SDS011;4635;48.686;9.008;2022-09-01T13:59:50;4.47;;;3.90;;
9200;SDS011;4635;48.686;9.008;2022-09-01T14:02:19;4.00;;;3.60;;
9200;SDS011;4635;48.686;9.008;2022-09-01T14:04:48;4.57;;;3.30;;
9200;SDS011;4635;48.686;9.008;2022-09-01T14:07:17;10.37;;;3.93;;
9200;SDS011;4635;48.686;9.008;2022-09-01T14:09:47;4.67;;;4.27;;
9200;SDS011;4635;48.686;9.008;2022-09-01T14:12:15;3.70;;;3.40;;
9200;SDS011;4635;48.686;9.008;2022-09-01T14:14:46;3.80;;;3.50;;
9200;SDS011;4635;48.686;9.008;2022-09-01T14:17:14;5.37;;;4.07;;
9200;SDS011;4635;48.686;9.008;2022-09-01T14:19:42;5.30;;;3.27;;
9200;SDS011;4635;48.686;9.008;2022-09-01T14:22:17;5.93;;;3.90;;
9200;SDS011;4635;48.686;9.008;2022-09-01T14:24:45;3.87;;;3.57;;
9200;SDS011;4635;48.686;9.008;2022-09-01T14:27:15;9.77;;;3.97;;
9200;SDS011;4635;48.686;9.008;2022-09-01T14:29:47;4.43;;;4.03;;
9200;SDS011;4635;48.686;9.008;2022-09-01T14:32:19;5.27;;;3.80;;
9200;SDS011;4635;48.686;9.008;2022-09-01T14:37:38;3.77;;;3.40;;
9200;SDS011;4635;48.686;9.008;2022-09-01T14:40:13;4.50;;;3.77;;
9200;SDS011;4635;48.686;9.008;2022-09-01T14:42:42;5.43;;;3.77;;
9200;SDS011;4635;48.686;9.008;2022-09-01T14:45:13;3.10;;;2.80;;
9200;SDS011;4635;48.686;9.008;2022-09-01T14:47:42;3.50;;;3.07;;
9200;SDS011;4635;48.686;9.008;2022-09-01T14:50:10;5.30;;;4.17;;
9200;SDS011;4635;48.686;9.008;2022-09-01T14:52:42;3.57;;;3.37;;
9200;SDS011;4635;48.686;9.008;2022-09-01T14:55:09;4.10;;;3.80;;
9200;SDS011;4635;48.686;9.008;2022-09-01T14:57:39;4.40;;;4.00;;
9200;SDS011;4635;48.686;9.008;2022-09-01T15:00:12;3.83;;;3.37;;
9200;SDS011;4635;48.686;9.008;2022-09-01T15:02:44;3.43;;;3.13;;
9200;SDS011;4635;48.686;9.008;2022-09-01T15:05:13;4.90;;;3.20;;
9200;SDS011;4635;48.686;9.008;2022-09-01T15:07:46;6.20;;;3.83;;
9200;SDS011;4635;48.686;9.008;2022-09-01T15:10:15;6.77;;;4.30;;
9200;SDS011;4635;48.686;9.008;2022-09-01T15:12:47;3.70;;;3.40;;
9200;SDS011;4635;48.686;9.008;2022-09-01T15:15:22;4.20;;;3.53;;
9200;SDS011;4635;48.686;9.008;2022-09-01T15:17:50;7.93;;;3.07;;
9200;SDS011;4635;48.686;9.008;2022-09-01T15:20:23;5.73;;;5.23;;
9200;SDS011;4635;48.686;9.008;2022-09-01T15:23:24;4.73;;;3.67;;
9200;SDS011;4635;48.686;9.008;2022-09-01T15:25:57;3.53;;;3.00;;
9200;SDS011;4635;48.686;9.008;2022-09-01T15:28:25;3.13;;;2.87;;
9200;SDS011;4635;48.686;9.008;2022-09-01T15:30:53;3.80;;;3.50;;
9200;SDS011;4635;48.686;9.008;2022-09-01T15:33:21;5.70;;;3.90;;
9200;SDS011;4635;48.686;9.008;2022-09-01T15:35:55;5.60;;;3.97;;
9200;SDS011;4635;48.686;9.008;2022-09-01T15:38:24;4.57;;;3.53;;
9200;SDS011;4635;48.686;9.008;2022-09-01T15:40:54;4.10;;;3.80;;
9200;SDS011;4635;48.686;9.008;2022-09-01T15:43:25;6.20;;;3.93;;
9200;SDS011;4635;48.686;9.008;2022-09-01T15:45:54;7.13;;;3.40;;
9200;SDS011;4635;48.686;9.008;2022-09-01T15:48:25;3.70;;;3.40;;
9200;SDS011;4635;48.686;9.008;2022-09-01T15:51:08;3.03;;;2.23;;
9200;SDS011;4635;48.686;9.008;2022-09-01T15:54:02;3.37;;;3.13;;
9200;SDS011;4635;48.686;9.008;2022-09-01T15:56:33;4.50;;;2.70;;
9200;SDS011;4635;48.686;9.008;2022-09-01T15:59:05;5.90;;;2.60;;
9200;SDS011;4635;48.686;9.008;2022-09-01T16:01:39;3.00;;;2.70;;
9200;SDS011;4635;48.686;9.008;2022-09-01T16:04:14;5.00;;;4.10;;
9200;SDS011;4635;48.686;9.008;2022-09-01T16:06:54;16.00;;;13.30;;
9200;SDS011;4635;48.686;9.008;2022-09-01T16:09:29;4.00;;;3.20;;
9200;SDS011;4635;48.686;9.008;2022-09-01T16:11:56;2.80;;;2.50;;